createdAt,value
2018-02-21T00:01:23.705Z,16.20
2018-02-21T00:03:51.493Z,16.20
2018-02-21T00:06:19.402Z,15.80
2018-02-21T00:08:47.262Z,15.70
2018-02-21T00:11:15.077Z,15.70
2018-02-21T00:13:42.890Z,15.60
2018-02-21T00:16:10.653Z,15.60
2018-02-21T00:18:38.416Z,15.50
2018-02-21T00:21:06.196Z,15.60
2018-02-21T00:23:33.952Z,15.70
2018-02-21T00:26:01.734Z,15.40
2018-02-21T00:28:29.493Z,15.50
2018-02-21T00:30:57.291Z,15.40
2018-02-21T00:33:25.868Z,15.50
2018-02-21T00:35:53.740Z,15.50
2018-02-21T00:38:22.270Z,15.30
2018-02-21T00:40:50.093Z,15.20
2018-02-21T00:43:17.915Z,15.50
2018-02-21T00:45:45.736Z,15.30
2018-02-21T00:48:19.979Z,15.50
2018-02-21T00:50:47.799Z,15.40
2018-02-21T00:53:15.686Z,15.40
2018-02-21T00:55:43.571Z,15.50
2018-02-21T00:58:11.367Z,15.50
2018-02-21T01:00:39.306Z,15.20
2018-02-21T01:03:07.415Z,15.00
2018-02-21T01:05:35.203Z,15.20
2018-02-21T01:08:02.941Z,15.30
2018-02-21T01:10:30.849Z,15.10
2018-02-21T01:12:58.837Z,14.90
2018-02-21T01:15:26.647Z,15.00
2018-02-21T01:17:54.414Z,15.10
2018-02-21T01:20:22.293Z,15.10
2018-02-21T01:22:50.115Z,15.10
2018-02-21T01:25:17.919Z,15.10
2018-02-21T01:27:45.704Z,15.10
2018-02-21T01:30:13.460Z,15.20
2018-02-21T01:32:41.233Z,15.40
2018-02-21T01:35:08.968Z,15.30
2018-02-21T01:37:36.748Z,15.10
2018-02-21T01:40:04.578Z,15.00
2018-02-21T01:42:33.084Z,14.90
2018-02-21T01:45:00.909Z,14.80
2018-02-21T01:47:28.689Z,14.80
2018-02-21T01:49:56.502Z,15.00
2018-02-21T01:52:24.252Z,15.00
2018-02-21T01:54:52.088Z,15.00
2018-02-21T01:57:19.905Z,15.00
2018-02-21T01:59:47.711Z,15.10
2018-02-21T02:02:15.523Z,15.00
2018-02-21T02:04:43.341Z,15.00
2018-02-21T02:07:11.112Z,14.90
2018-02-21T02:09:38.918Z,14.80
2018-02-21T02:12:06.675Z,14.70
2018-02-21T02:14:34.456Z,14.80
2018-02-21T02:17:02.228Z,14.70
2018-02-21T02:19:30.029Z,14.60
2018-02-21T02:21:57.814Z,14.60
2018-02-21T02:24:25.634Z,14.70
2018-02-21T02:26:53.388Z,14.70
2018-02-21T02:29:21.914Z,14.80
2018-02-21T02:31:49.680Z,14.90
2018-02-21T02:34:17.508Z,14.90
2018-02-21T02:36:45.309Z,14.60
2018-02-21T02:39:25.776Z,14.50
2018-02-21T02:41:53.535Z,14.40
2018-02-21T02:44:21.330Z,14.50
2018-02-21T02:46:49.143Z,14.50
2018-02-21T02:49:16.913Z,14.50
2018-02-21T02:51:44.691Z,14.60
2018-02-21T02:54:12.425Z,14.70
2018-02-21T02:56:40.208Z,14.80
2018-02-21T02:59:08.018Z,14.80
2018-02-21T03:01:35.876Z,14.70
2018-02-21T03:04:03.693Z,14.70
2018-02-21T03:06:32.278Z,14.70
2018-02-21T03:09:00.104Z,14.70
2018-02-21T03:11:27.880Z,14.80
2018-02-21T03:13:55.647Z,14.80
2018-02-21T03:16:23.388Z,14.80
2018-02-21T03:18:51.353Z,14.80
2018-02-21T03:21:19.232Z,14.70
2018-02-21T03:23:46.981Z,14.70
2018-02-21T03:26:14.810Z,14.70
2018-02-21T03:28:42.627Z,14.70
2018-02-21T03:31:10.473Z,14.70
2018-02-21T03:33:38.282Z,14.70
2018-02-21T03:36:06.107Z,14.80
2018-02-21T03:38:33.926Z,14.70
2018-02-21T03:41:01.757Z,14.40
2018-02-21T03:43:29.490Z,14.40
2018-02-21T03:45:57.283Z,14.40
2018-02-21T03:48:25.021Z,14.50
2018-02-21T03:50:52.845Z,14.50
2018-02-21T03:53:20.598Z,14.50
2018-02-21T03:55:48.420Z,14.60
2018-02-21T03:58:16.170Z,14.50
2018-02-21T04:00:43.990Z,14.60
2018-02-21T04:03:11.851Z,14.70
2018-02-21T04:05:39.693Z,14.70
2018-02-21T04:08:07.553Z,14.70
2018-02-21T04:10:35.309Z,14.60
2018-02-21T04:13:03.116Z,14.60
2018-02-21T04:15:30.911Z,14.60
2018-02-21T04:17:58.663Z,14.60
2018-02-21T04:20:26.479Z,14.50
2018-02-21T04:22:54.231Z,14.50
2018-02-21T04:25:22.018Z,14.50
2018-02-21T04:27:49.835Z,14.60
2018-02-21T04:30:17.586Z,14.60
2018-02-21T04:32:45.347Z,14.60
2018-02-21T04:35:13.165Z,14.50
2018-02-21T04:37:40.948Z,14.50
2018-02-21T04:40:08.811Z,14.40
2018-02-21T04:42:36.627Z,14.40
2018-02-21T04:45:04.430Z,14.40
2018-02-21T04:47:32.253Z,14.40
2018-02-21T04:50:00.034Z,14.40
2018-02-21T04:52:27.872Z,14.40
2018-02-21T05:08:15.800Z,14.80
2018-02-21T05:10:43.640Z,14.50
2018-02-21T05:13:11.482Z,14.40
2018-02-21T05:15:39.386Z,14.40
2018-02-21T05:18:07.260Z,14.50
2018-02-21T05:20:35.136Z,14.50
2018-02-21T05:23:03.008Z,14.60
2018-02-21T05:25:31.860Z,14.70
2018-02-21T05:27:59.762Z,14.80
2018-02-21T05:30:27.667Z,14.80
2018-02-21T05:32:56.231Z,14.90
2018-02-21T05:35:24.072Z,14.80
2018-02-21T05:37:51.884Z,14.90
2018-02-21T05:40:20.476Z,15.10
2018-02-21T05:42:49.006Z,15.00
2018-02-21T05:45:16.808Z,15.20
2018-02-21T05:47:44.561Z,15.20
2018-02-21T05:50:12.297Z,15.20
2018-02-21T05:52:40.104Z,15.30
2018-02-21T05:55:07.894Z,15.30
2018-02-21T05:57:36.278Z,15.40
2018-02-21T06:00:05.086Z,15.60
2018-02-21T06:02:32.891Z,15.50
2018-02-21T06:05:00.691Z,15.60
2018-02-21T06:07:28.529Z,15.60
2018-02-21T06:09:56.377Z,15.70
2018-02-21T06:12:24.176Z,15.80
2018-02-21T06:14:51.994Z,15.90
2018-02-21T06:17:19.906Z,15.80
2018-02-21T06:20:01.785Z,15.50
2018-02-21T06:22:29.632Z,15.40
2018-02-21T06:24:57.595Z,15.70
2018-02-21T06:27:25.454Z,15.80
2018-02-21T06:29:53.479Z,15.90
2018-02-21T06:32:21.321Z,16.10
2018-02-21T06:34:49.152Z,16.20
2018-02-21T06:37:16.994Z,16.20
2018-02-21T06:39:44.899Z,16.20
2018-02-21T06:42:12.929Z,16.20
2018-02-21T06:44:40.832Z,16.30
2018-02-21T06:47:08.635Z,16.30
2018-02-21T06:49:36.413Z,16.40
2018-02-21T06:52:04.237Z,15.90
2018-02-21T06:54:32.915Z,16.00
2018-02-21T06:57:00.701Z,16.00
2018-02-21T06:59:29.304Z,16.30
2018-02-21T07:01:57.827Z,16.40
2018-02-21T07:04:25.589Z,16.30
2018-02-21T07:06:53.535Z,16.30
2018-02-21T07:09:22.055Z,16.50
2018-02-21T07:11:49.940Z,16.50
2018-02-21T07:14:17.720Z,16.50
2018-02-21T07:16:45.577Z,16.40
2018-02-21T07:19:13.364Z,16.40
2018-02-21T07:21:41.967Z,16.50
2018-02-21T07:24:09.756Z,16.50
2018-02-21T07:26:37.520Z,16.50
2018-02-21T07:29:05.358Z,16.30
2018-02-21T07:31:33.441Z,16.40
2018-02-21T07:34:01.295Z,16.40
2018-02-21T07:36:29.102Z,16.40
2018-02-21T07:38:56.952Z,16.50
2018-02-21T07:41:24.758Z,16.80
2018-02-21T07:43:52.609Z,16.90
2018-02-21T07:46:20.374Z,16.80
2018-02-21T07:48:48.147Z,17.00
2018-02-21T07:51:15.929Z,16.90
2018-02-21T07:53:43.784Z,16.90
2018-02-21T07:56:12.281Z,17.00
2018-02-21T07:58:40.163Z,17.00
2018-02-21T08:01:07.963Z,17.20
2018-02-21T08:03:36.597Z,17.20
2018-02-21T08:06:05.134Z,17.20
2018-02-21T08:08:32.900Z,17.10
2018-02-21T08:11:00.703Z,17.10
2018-02-21T08:13:29.280Z,17.20
2018-02-21T08:15:57.084Z,17.40
2018-02-21T08:18:25.813Z,17.40
2018-02-21T08:20:53.643Z,17.10
2018-02-21T08:23:21.459Z,16.80
2018-02-21T08:25:49.972Z,16.70
2018-02-21T08:28:17.787Z,16.60
2018-02-21T08:30:45.617Z,16.60
2018-02-21T08:33:13.448Z,16.50
2018-02-21T08:35:41.294Z,16.30
2018-02-21T08:38:09.074Z,16.30
2018-02-21T08:40:36.905Z,16.00
2018-02-21T08:43:17.361Z,16.10
2018-02-21T08:45:45.197Z,16.40
2018-02-21T08:48:12.972Z,16.60
2018-02-21T08:50:40.781Z,16.60
2018-02-21T08:53:08.602Z,16.80
2018-02-21T08:55:36.451Z,16.60
2018-02-21T08:58:04.344Z,16.60
2018-02-21T09:00:32.165Z,16.50
2018-02-21T09:02:59.952Z,16.50
2018-02-21T09:05:27.722Z,16.40
2018-02-21T09:07:55.479Z,16.20
2018-02-21T09:10:23.321Z,16.20
2018-02-21T09:12:51.147Z,16.30
2018-02-21T09:15:18.982Z,16.40
2018-02-21T09:17:47.589Z,16.20
2018-02-21T09:20:16.159Z,16.20
2018-02-21T09:22:44.006Z,16.10
2018-02-21T09:25:11.888Z,16.20
2018-02-21T09:27:40.539Z,16.40
2018-02-21T09:30:08.408Z,16.30
2018-02-21T09:32:36.189Z,16.40
2018-02-21T09:35:04.032Z,16.60
2018-02-21T09:37:31.854Z,16.50
2018-02-21T09:39:59.651Z,16.40
2018-02-21T09:42:27.435Z,16.40
2018-02-21T09:44:55.327Z,16.60
2018-02-21T09:47:23.147Z,16.70
2018-02-21T09:49:51.007Z,16.60
2018-02-21T09:52:18.786Z,16.60
2018-02-21T09:54:47.333Z,16.70
2018-02-21T09:57:15.100Z,16.70
2018-02-21T09:59:44.982Z,16.80
2018-02-21T10:02:18.511Z,16.70
2018-02-21T10:04:46.336Z,16.70
2018-02-21T10:07:14.190Z,16.70
2018-02-21T10:09:42.091Z,16.60
2018-02-21T10:12:09.862Z,16.60
2018-02-21T10:14:37.698Z,16.60
2018-02-21T10:17:05.527Z,16.60
2018-02-21T10:19:33.310Z,16.60
2018-02-21T10:22:01.131Z,16.60
2018-02-21T10:24:28.919Z,16.40
2018-02-21T10:26:56.674Z,16.40
2018-02-21T10:29:24.537Z,16.10
2018-02-21T10:31:52.335Z,15.90
2018-02-21T10:34:20.879Z,15.70
2018-02-21T10:36:48.648Z,15.70
2018-02-21T10:39:16.441Z,15.80
2018-02-21T10:41:44.203Z,15.80
2018-02-21T10:44:11.998Z,15.80
2018-02-21T10:46:39.791Z,15.80
2018-02-21T10:49:07.550Z,15.80
2018-02-21T10:51:35.305Z,15.80
2018-02-21T10:54:03.109Z,15.70
2018-02-21T10:56:30.958Z,15.60
2018-02-21T10:58:58.773Z,15.70
2018-02-21T11:01:26.625Z,15.80
2018-02-21T11:03:54.387Z,15.80
2018-02-21T11:06:22.241Z,15.80
2018-02-21T11:08:51.042Z,16.00
2018-02-21T11:11:18.839Z,16.20
2018-02-21T11:13:46.641Z,16.20
2018-02-21T11:16:14.427Z,16.20
2018-02-21T11:18:42.200Z,16.40
2018-02-21T11:21:09.974Z,16.40
2018-02-21T11:23:37.818Z,16.40
2018-02-21T11:26:10.800Z,16.60
2018-02-21T11:28:38.664Z,16.50
2018-02-21T11:31:07.202Z,16.70
2018-02-21T11:33:35.006Z,16.70
2018-02-21T11:36:02.809Z,16.70
2018-02-21T11:38:30.624Z,16.60
2018-02-21T11:40:59.843Z,16.70
2018-02-21T11:43:27.631Z,16.70
2018-02-21T11:45:55.471Z,16.80
2018-02-21T11:48:24.041Z,16.70
2018-02-21T11:50:51.896Z,16.70
2018-02-21T11:53:19.785Z,16.90
2018-02-21T11:55:47.682Z,17.00
2018-02-21T11:58:15.531Z,17.10
2018-02-21T12:00:44.274Z,17.20
2018-02-21T12:03:12.275Z,17.20
2018-02-21T12:05:41.248Z,17.20
2018-02-21T12:08:09.187Z,17.30
2018-02-21T12:10:37.039Z,17.40
2018-02-21T12:13:04.953Z,17.30
2018-02-21T12:15:32.791Z,17.40
2018-02-21T12:20:38.550Z,17.50
2018-02-21T12:23:06.408Z,17.60
2018-02-21T12:25:34.987Z,17.70
2018-02-21T12:28:02.788Z,17.60
2018-02-21T12:30:30.545Z,17.90
2018-02-21T12:33:00.394Z,18.00
2018-02-21T12:35:28.357Z,18.10
2018-02-21T12:37:56.146Z,18.20
2018-02-21T12:40:29.524Z,18.20
2018-02-21T12:42:57.242Z,18.30
2018-02-21T12:45:25.025Z,18.60
2018-02-21T12:47:52.811Z,18.90
2018-02-21T12:50:20.623Z,18.70
2018-02-21T12:52:48.425Z,18.70
2018-02-21T12:55:16.219Z,18.90
2018-02-21T12:57:44.008Z,18.90
2018-02-21T13:00:11.811Z,19.00
2018-02-21T13:02:41.056Z,19.10
2018-02-21T13:05:09.520Z,19.10
2018-02-21T13:10:14.036Z,19.10
2018-02-21T13:12:41.796Z,19.50
2018-02-21T13:15:09.655Z,19.70
2018-02-21T13:17:37.494Z,20.00
2018-02-21T13:20:06.026Z,20.90
2018-02-21T13:22:34.026Z,20.90
2018-02-21T13:25:01.882Z,20.80
2018-02-21T13:27:29.865Z,20.30
2018-02-21T13:29:58.994Z,20.60
2018-02-21T13:32:26.923Z,20.50
2018-02-21T15:02:51.773Z,23.10
2018-02-21T15:05:19.642Z,23.00
2018-02-21T15:07:48.445Z,23.00
2018-02-21T15:10:16.237Z,22.90
2018-02-21T15:12:44.196Z,22.70
2018-02-21T15:15:12.767Z,22.20
2018-02-21T15:17:40.546Z,22.10
2018-02-21T15:20:08.402Z,21.70
2018-02-21T15:22:36.248Z,21.30
2018-02-21T15:25:04.000Z,21.10
2018-02-21T15:27:31.799Z,21.10
2018-02-21T15:29:59.573Z,21.00
2018-02-21T15:32:28.487Z,20.40
2018-02-21T15:34:56.379Z,20.40
2018-02-21T15:37:24.181Z,20.30
2018-02-21T15:39:52.000Z,20.20
2018-02-21T15:42:19.806Z,20.00
2018-02-21T15:44:47.643Z,19.90
2018-02-21T15:47:15.431Z,19.90
2018-02-21T15:49:46.156Z,19.90
2018-02-21T15:52:14.712Z,20.00
2018-02-21T15:54:42.452Z,19.90
2018-02-21T15:57:11.185Z,19.90
2018-02-21T15:59:38.957Z,19.90
2018-02-21T16:02:06.687Z,20.10
2018-02-21T16:04:34.521Z,20.10
2018-02-21T16:07:02.666Z,20.10
2018-02-21T16:09:31.427Z,20.10
2018-02-21T16:11:59.923Z,20.10
2018-02-21T16:14:28.483Z,20.00
2018-02-21T16:16:57.067Z,20.00
2018-02-21T16:19:24.877Z,20.10
2018-02-21T16:21:52.599Z,20.00
2018-02-21T16:24:20.336Z,20.00
2018-02-21T16:26:48.075Z,20.00
2018-02-21T16:29:15.891Z,19.90
2018-02-21T16:31:43.624Z,20.00
2018-02-21T16:34:11.394Z,19.90
2018-02-21T16:36:39.147Z,19.90
2018-02-21T16:39:07.767Z,19.90
2018-02-21T16:41:35.558Z,19.80
2018-02-21T16:44:03.296Z,19.80
2018-02-21T16:46:31.139Z,19.70
2018-02-21T16:48:58.919Z,19.70
2018-02-21T16:51:26.791Z,19.60
2018-02-21T16:54:00.202Z,19.60
2018-02-21T16:56:27.977Z,19.70
2018-02-21T16:58:55.763Z,19.70
2018-02-21T17:01:23.511Z,20.60
2018-02-21T17:04:17.221Z,20.70
2018-02-21T17:06:46.145Z,20.50
2018-02-21T17:09:19.248Z,20.40
2018-02-21T17:11:47.051Z,20.40
2018-02-21T17:14:15.632Z,20.20
2018-02-21T17:16:43.844Z,20.10
2018-02-21T17:19:12.115Z,20.10
2018-02-21T17:21:39.960Z,19.90
2018-02-21T17:24:09.053Z,20.00
2018-02-21T17:26:37.433Z,19.90
2018-02-21T17:29:06.082Z,19.90
2018-02-21T17:31:33.943Z,19.90
2018-02-21T17:34:02.515Z,20.10
2018-02-21T17:36:30.491Z,20.50
2018-02-21T17:39:00.048Z,21.40
2018-02-21T17:41:34.647Z,21.00
2018-02-21T17:44:03.736Z,20.60
2018-02-21T17:46:31.594Z,20.40
2018-02-21T17:49:04.919Z,20.30
2018-02-21T17:51:35.165Z,20.10
2018-02-21T17:54:04.099Z,20.00
2018-02-21T17:56:34.934Z,20.00
2018-02-21T17:59:07.163Z,20.00
2018-02-21T18:01:35.029Z,20.00
2018-02-21T18:04:02.895Z,19.80
2018-02-21T18:06:31.533Z,19.80
2018-02-21T18:08:59.350Z,19.80
2018-02-21T18:14:36.073Z,19.70
2018-02-21T18:17:04.001Z,19.70
2018-02-21T18:19:32.707Z,19.60
2018-02-21T18:22:02.027Z,19.50
2018-02-21T18:24:33.084Z,19.50
2018-02-21T18:27:00.952Z,19.50
2018-02-21T18:29:42.760Z,19.50
2018-02-21T18:32:29.188Z,19.40
2018-02-21T18:34:57.109Z,19.50
2018-02-21T18:37:25.109Z,19.50
2018-02-21T18:39:55.611Z,19.30
2018-02-21T18:42:23.493Z,19.30
2018-02-21T18:44:53.250Z,19.30
2018-02-21T18:47:21.047Z,19.30
2018-02-21T18:49:55.921Z,19.20
2018-02-21T18:52:24.550Z,19.00
2018-02-21T18:54:53.307Z,19.00
2018-02-21T18:57:21.867Z,19.00
2018-02-21T18:59:49.838Z,18.90
2018-02-21T19:02:22.581Z,19.00
2018-02-21T19:04:56.242Z,19.00
2018-02-21T19:07:24.813Z,19.10
2018-02-21T19:09:54.534Z,19.00
2018-02-21T19:12:22.404Z,19.20
2018-02-21T19:14:50.254Z,19.20
2018-02-21T19:17:18.071Z,19.30
2018-02-21T19:19:45.885Z,19.30
2018-02-21T19:22:14.713Z,19.30
2018-02-21T19:24:42.981Z,19.30
2018-02-21T19:27:10.750Z,19.40
2018-02-21T19:29:39.844Z,19.50
2018-02-21T19:32:09.827Z,19.50
2018-02-21T19:34:37.594Z,19.50
2018-02-21T19:37:05.328Z,19.70
2018-02-21T19:39:33.095Z,20.50
2018-02-21T19:42:00.869Z,20.20
2018-02-21T19:44:28.659Z,20.00
2018-02-21T19:46:56.491Z,19.90
2018-02-21T19:49:24.283Z,19.70
2018-02-21T19:51:52.076Z,19.60
2018-02-21T19:54:19.839Z,19.50
2018-02-21T19:56:48.444Z,19.20
2018-02-21T19:59:16.203Z,19.20
2018-02-21T20:01:43.963Z,19.30
2018-02-21T20:04:11.732Z,19.30
2018-02-21T20:06:40.354Z,19.30
2018-02-21T20:09:08.983Z,19.20
2018-02-21T20:11:36.734Z,19.20
2018-02-21T20:14:04.666Z,19.10
2018-02-21T20:16:34.536Z,19.20
2018-02-21T20:19:02.301Z,19.20
2018-02-21T20:21:30.162Z,19.10
2018-02-21T20:23:59.438Z,19.10
2018-02-21T20:26:27.174Z,19.00
2018-02-21T20:28:55.022Z,19.00
2018-02-21T20:31:22.806Z,18.90
2018-02-21T20:33:50.582Z,19.00
2018-02-21T20:36:19.082Z,18.70
2018-02-21T20:38:46.959Z,18.70
2018-02-21T20:41:14.792Z,18.70
2018-02-21T20:43:42.597Z,18.60
2018-02-21T20:46:10.404Z,18.70
2018-02-21T20:48:38.135Z,18.80
2018-02-21T20:51:05.948Z,18.70
2018-02-21T20:53:33.671Z,18.70
2018-02-21T20:56:01.548Z,18.70
2018-02-21T20:58:29.332Z,18.70
2018-02-21T21:00:57.141Z,18.70
2018-02-21T21:03:24.906Z,18.70
2018-02-21T21:05:52.812Z,18.70
2018-02-21T21:08:20.648Z,18.80
2018-02-21T21:10:48.452Z,18.70
2018-02-21T21:13:16.179Z,18.70
2018-02-21T21:15:45.703Z,18.70
2018-02-21T21:18:13.492Z,18.70
2018-02-21T21:20:41.292Z,18.80
2018-02-21T21:23:09.165Z,18.90
2018-02-21T21:25:36.900Z,18.70
2018-02-21T21:28:04.762Z,18.80
2018-02-21T21:30:35.407Z,18.80
2018-02-21T21:33:03.214Z,18.80
2018-02-21T21:35:31.062Z,18.80
2018-02-21T21:37:58.835Z,18.90
2018-02-21T21:40:26.688Z,18.90
2018-02-21T21:42:54.486Z,18.90
2018-02-21T21:45:22.280Z,18.70
2018-02-21T21:47:51.677Z,18.70
2018-02-21T21:50:19.482Z,18.70
2018-02-21T21:52:47.324Z,18.70
2018-02-21T21:55:15.181Z,18.80
2018-02-21T21:57:43.760Z,18.70
2018-02-21T22:00:11.585Z,18.70
2018-02-21T22:02:39.417Z,18.60
2018-02-21T22:05:07.248Z,18.60
2018-02-21T22:07:35.054Z,18.60
2018-02-21T22:10:02.887Z,18.60
2018-02-21T22:12:30.656Z,18.50
2018-02-21T22:14:58.479Z,18.50
2018-02-21T22:17:26.215Z,18.40
2018-02-21T22:19:54.007Z,18.30
2018-02-21T22:22:21.817Z,18.20
2018-02-21T22:24:49.616Z,17.50
2018-02-21T22:27:18.221Z,18.10
2018-02-21T22:29:46.032Z,18.00
2018-02-21T22:32:13.817Z,17.80
2018-02-21T22:34:41.662Z,17.80
2018-02-21T22:37:09.471Z,17.90
2018-02-21T22:39:37.230Z,18.00
2018-02-21T22:42:05.023Z,18.10
2018-02-21T22:44:32.770Z,17.90
2018-02-21T22:47:00.524Z,17.80
2018-02-21T22:49:28.324Z,17.80
2018-02-21T22:51:56.122Z,17.80
2018-02-21T22:54:24.674Z,17.80
2018-02-21T22:56:52.531Z,17.80
2018-02-21T22:59:20.361Z,17.90
2018-02-21T23:01:48.119Z,17.80
2018-02-21T23:04:15.864Z,17.80
2018-02-21T23:06:43.677Z,17.80
2018-02-21T23:09:13.072Z,17.80
2018-02-21T23:11:41.219Z,17.70
2018-02-21T23:14:09.075Z,17.90
2018-02-21T23:16:36.890Z,17.80
2018-02-21T23:19:04.678Z,17.70
2018-02-21T23:21:32.435Z,17.70
2018-02-21T23:24:01.379Z,17.40
2018-02-21T23:26:29.178Z,17.40
2018-02-21T23:28:57.049Z,17.50
2018-02-21T23:31:24.821Z,17.50
2018-02-21T23:33:52.585Z,17.50
2018-02-21T23:36:20.395Z,17.40
2018-02-21T23:38:48.195Z,17.50
2018-02-21T23:41:15.991Z,17.50
2018-02-21T23:43:43.888Z,17.50
2018-02-21T23:46:11.699Z,17.40
2018-02-21T23:48:39.492Z,17.40
2018-02-21T23:51:07.220Z,17.40
2018-02-21T23:53:35.781Z,17.40
2018-02-21T23:56:03.608Z,17.30
2018-02-21T23:58:31.431Z,17.30
